Surhuizum, Netherlands
Current Conditions -  °F | °C
As of 11:10 PM on Thursday 23 Oct 2014 (Local Time) from EHLW Reporting Station
Haze Haze  
Wind Chill: 55°   Ceiling: 1000
Heat Index: 55°   Visibility: 4mi
Dew Point: 52°   Wind: 14mph
Humidity: 88%   Direction: 210°SSW
Pressure: 30.09"   Gusts: NA
Location:  53.2°N, 6.18°E
Report Text: EHLW 232110Z AUTO 21012KT 7000 BR SCT008 OVC010 13/11 Q1019 GRN
Loading
Personal Weather Stations






























Interactive Weather Map
Tropical Storm Tracking
New forecast layout! Learn more

10-Day Weather Forecast

Advertisements
Track Severe Weather on mobile